createdAt,value
2023-03-06T00:01:54.622Z,97564.44
2023-03-06T00:04:21.163Z,97558.28
2023-03-06T00:06:47.690Z,97558.75
2023-03-06T00:09:14.226Z,97549.16
2023-03-06T00:11:40.723Z,97557.81
2023-03-06T00:14:07.261Z,97554.13
2023-03-06T00:16:34.060Z,97543.53
2023-03-06T00:19:00.602Z,97551.63
2023-03-06T00:21:27.126Z,97548.91
2023-03-06T00:23:53.613Z,97536.91
2023-03-06T00:26:20.105Z,97543.22
2023-03-06T00:28:46.795Z,97533.59
2023-03-06T00:31:13.331Z,97532.91
2023-03-06T00:33:39.899Z,97536.47
2023-03-06T00:36:06.652Z,97528.75
2023-03-06T00:38:35.599Z,97525.31
2023-03-06T00:41:11.789Z,97524.63
2023-03-06T00:43:38.300Z,97520.25
2023-03-06T00:46:07.474Z,97518.31
2023-03-06T00:48:34.445Z,97523.53
2023-03-06T00:51:01.274Z,97519.38
2023-03-06T00:53:27.804Z,97513.59
2023-03-06T00:55:54.339Z,97512.19
2023-03-06T00:58:20.854Z,97513.78
2023-03-06T01:00:48.611Z,97511.31
2023-03-06T01:03:16.183Z,97515.69
2023-03-06T01:05:42.705Z,97501.81
2023-03-06T01:08:09.188Z,97503.28
2023-03-06T01:10:38.241Z,97485.69
2023-03-06T01:13:04.952Z,97499.72
2023-03-06T01:15:31.418Z,97491.06
2023-03-06T01:17:57.942Z,97494.31
2023-03-06T01:20:24.457Z,97486.22
2023-03-06T01:22:51.024Z,97490.72
2023-03-06T01:25:17.520Z,97487.81
2023-03-06T01:27:44.028Z,97490.53
2023-03-06T01:30:11.164Z,97481.75
2023-03-06T01:32:38.226Z,97482.00
2023-03-06T01:35:05.119Z,97482.97
2023-03-06T01:37:31.630Z,97481.28
2023-03-06T01:39:58.161Z,97477.31
2023-03-06T01:42:24.700Z,97472.44
2023-03-06T01:45:03.364Z,97474.25
2023-03-06T01:47:29.904Z,97467.38
2023-03-06T01:49:57.938Z,97460.66
2023-03-06T01:52:26.353Z,97461.25
2023-03-06T01:54:54.271Z,97454.81
2023-03-06T01:57:23.576Z,97443.28
2023-03-06T01:59:53.096Z,97450.19
2023-03-06T02:02:19.637Z,97454.81
2023-03-06T02:04:46.151Z,97446.59
2023-03-06T02:07:12.750Z,97437.81
2023-03-06T02:09:39.331Z,97437.81
2023-03-06T02:12:07.079Z,97434.53
2023-03-06T02:14:33.957Z,97426.81
2023-03-06T02:17:00.588Z,97417.19
2023-03-06T02:19:37.074Z,97415.53
2023-03-06T02:22:03.644Z,97414.72
2023-03-06T02:24:35.594Z,97410.59
2023-03-06T02:27:03.288Z,97408.09
2023-03-06T02:29:30.569Z,97410.81
2023-03-06T02:32:00.336Z,97407.75
2023-03-06T02:34:27.221Z,97400.91
2023-03-06T02:37:13.969Z,97392.09
2023-03-06T02:39:41.567Z,97387.84
2023-03-06T02:42:08.510Z,97401.72
2023-03-06T02:44:35.111Z,97396.66
2023-03-06T02:47:01.695Z,97394.03
2023-03-06T02:49:28.272Z,97386.19
2023-03-06T02:51:54.800Z,97385.22
2023-03-06T02:54:21.339Z,97384.41
2023-03-06T02:56:47.929Z,97378.50
2023-03-06T02:59:14.422Z,97375.88
2023-03-06T03:01:41.057Z,97383.59
2023-03-06T03:04:08.119Z,97376.69
2023-03-06T03:06:34.715Z,97381.81
2023-03-06T03:09:01.468Z,97393.06
2023-03-06T03:11:28.841Z,97380.00
2023-03-06T03:13:55.686Z,97382.63
2023-03-06T03:16:24.155Z,97384.41
2023-03-06T03:18:53.791Z,97379.31
2023-03-06T03:21:22.402Z,97386.59
2023-03-06T03:23:49.150Z,97378.31
2023-03-06T03:26:17.114Z,97376.06
2023-03-06T03:28:49.303Z,97378.31
2023-03-06T03:31:18.480Z,97379.13
2023-03-06T03:33:45.213Z,97367.88
2023-03-06T03:36:12.622Z,97359.22
2023-03-06T03:38:42.302Z,97361.56
2023-03-06T03:41:08.903Z,97360.59
2023-03-06T03:43:35.914Z,97360.03
2023-03-06T03:46:02.490Z,97356.34
2023-03-06T03:48:29.091Z,97358.06
2023-03-06T03:51:02.201Z,97363.72
2023-03-06T03:53:28.756Z,97359.34
2023-03-06T03:55:55.224Z,97367.53
2023-03-06T03:58:21.815Z,97356.03
2023-03-06T04:00:49.238Z,97353.84
2023-03-06T04:03:15.766Z,97358.16
2023-03-06T04:05:44.714Z,97355.78
2023-03-06T04:08:13.891Z,97343.69
2023-03-06T04:10:43.196Z,97349.41
2023-03-06T04:13:11.348Z,97341.22
2023-03-06T04:15:41.887Z,97336.19
2023-03-06T04:18:09.017Z,97330.72
2023-03-06T04:20:36.084Z,97331.41
2023-03-06T04:23:03.942Z,97332.69
2023-03-06T04:25:31.535Z,97334.84
2023-03-06T04:28:00.059Z,97333.75
2023-03-06T04:30:27.890Z,97335.28
2023-03-06T04:32:54.513Z,97332.69
2023-03-06T04:35:21.171Z,97325.66
2023-03-06T04:38:01.658Z,97331.00
2023-03-06T04:40:31.022Z,97322.50
2023-03-06T04:42:58.043Z,97320.06
2023-03-06T04:45:24.889Z,97320.13
2023-03-06T04:47:51.417Z,97314.75
2023-03-06T04:50:18.118Z,97324.50
2023-03-06T04:52:44.604Z,97318.47
2023-03-06T04:55:12.535Z,97314.91
2023-03-06T04:57:39.544Z,97314.91
2023-03-06T05:00:08.972Z,97312.97
2023-03-06T05:02:35.709Z,97319.88
2023-03-06T05:05:02.453Z,97316.41
2023-03-06T05:07:28.947Z,97308.47
2023-03-06T05:09:55.413Z,97310.94
2023-03-06T05:12:22.065Z,97306.66
2023-03-06T05:14:48.604Z,97312.84
2023-03-06T05:17:15.126Z,97305.97
2023-03-06T05:19:41.636Z,97308.56
2023-03-06T05:22:08.293Z,97313.13
2023-03-06T05:24:34.833Z,97309.53
2023-03-06T05:27:01.316Z,97305.28
2023-03-06T05:29:28.015Z,97306.19
2023-03-06T05:31:54.933Z,97308.66
2023-03-06T05:34:21.516Z,97302.19
2023-03-06T05:36:48.093Z,97301.38
2023-03-06T05:39:14.560Z,97298.69
2023-03-06T05:41:41.092Z,97308.06
2023-03-06T05:44:07.599Z,97307.34
2023-03-06T05:46:34.155Z,97298.84
2023-03-06T05:49:00.630Z,97305.00
2023-03-06T05:51:27.166Z,97293.63
2023-03-06T05:53:53.821Z,97299.41
2023-03-06T05:56:21.825Z,97297.50
2023-03-06T05:58:48.752Z,97298.19
2023-03-06T06:01:16.534Z,97299.69
2023-03-06T06:03:43.351Z,97299.69
2023-03-06T06:06:10.589Z,97298.75
2023-03-06T06:08:37.199Z,97298.50
2023-03-06T06:11:07.172Z,97295.88
2023-03-06T06:13:33.696Z,97299.56
2023-03-06T06:16:00.272Z,97301.41
2023-03-06T06:18:26.976Z,97298.41
2023-03-06T06:20:55.821Z,97292.25
2023-03-06T06:23:22.473Z,97296.94
2023-03-06T06:25:48.963Z,97299.00
2023-03-06T06:28:15.496Z,97304.00
2023-03-06T06:30:41.990Z,97298.75
2023-03-06T06:33:08.529Z,97300.41
2023-03-06T06:35:35.757Z,97301.63
2023-03-06T06:38:02.272Z,97301.94
2023-03-06T06:40:29.698Z,97303.72
2023-03-06T06:42:56.203Z,97304.00
2023-03-06T06:45:22.773Z,97300.84
2023-03-06T06:47:50.011Z,97297.53
2023-03-06T06:50:16.685Z,97301.97
2023-03-06T06:52:43.293Z,97303.50
2023-03-06T06:55:10.167Z,97302.81
2023-03-06T06:57:36.708Z,97308.97
2023-03-06T07:00:04.066Z,97305.91
2023-03-06T07:02:32.242Z,97308.72
2023-03-06T07:05:05.931Z,97305.72
2023-03-06T07:07:36.653Z,97306.69
2023-03-06T07:10:05.659Z,97311.25
2023-03-06T07:12:33.163Z,97307.28
2023-03-06T07:14:59.788Z,97305.63
2023-03-06T07:17:26.312Z,97310.31
2023-03-06T07:19:52.840Z,97308.28
2023-03-06T07:22:19.771Z,97307.97
2023-03-06T07:24:46.260Z,97311.97
2023-03-06T07:27:12.747Z,97313.22
2023-03-06T07:29:39.263Z,97316.00
2023-03-06T07:32:06.321Z,97319.56
2023-03-06T07:34:32.829Z,97322.75
2023-03-06T07:36:59.370Z,97317.09
2023-03-06T07:39:25.861Z,97324.09
2023-03-06T07:41:53.715Z,97323.28
2023-03-06T07:44:20.225Z,97326.72
2023-03-06T07:46:47.089Z,97329.63
2023-03-06T07:49:13.620Z,97330.69
2023-03-06T07:51:40.102Z,97335.38
2023-03-06T07:54:06.582Z,97339.22
2023-03-06T07:56:35.098Z,97336.91
2023-03-06T07:59:01.656Z,97334.72
2023-03-06T08:01:28.217Z,97337.44
2023-03-06T08:03:54.800Z,97336.38
2023-03-06T08:06:22.363Z,97343.81
2023-03-06T08:08:49.521Z,97341.22
2023-03-06T08:11:16.777Z,97342.97
2023-03-06T08:13:43.425Z,97333.63
2023-03-06T08:16:10.147Z,97340.50
2023-03-06T08:18:38.115Z,97335.41
2023-03-06T08:21:05.750Z,97342.56
2023-03-06T08:23:32.335Z,97341.88
2023-03-06T08:25:59.227Z,97339.28
2023-03-06T08:28:25.941Z,97338.28
2023-03-06T08:30:52.418Z,97332.47
2023-03-06T08:33:19.007Z,97336.56
2023-03-06T08:35:45.505Z,97334.88
2023-03-06T08:38:12.064Z,97333.31
2023-03-06T08:40:38.564Z,97340.19
2023-03-06T08:43:05.076Z,97339.63
2023-03-06T08:45:31.625Z,97337.88
2023-03-06T08:47:58.162Z,97337.31
2023-03-06T08:50:24.652Z,97341.34
2023-03-06T08:52:51.244Z,97339.31
2023-03-06T08:55:17.716Z,97343.63
2023-03-06T08:57:44.198Z,97338.59
2023-03-06T09:00:11.124Z,97345.50
2023-03-06T09:02:37.742Z,97343.75
2023-03-06T09:05:05.158Z,97349.69
2023-03-06T09:07:31.660Z,97343.63
2023-03-06T09:09:58.492Z,97344.06
2023-03-06T09:12:24.986Z,97350.00
2023-03-06T09:14:51.466Z,97352.50
2023-03-06T09:17:18.138Z,97346.34
2023-03-06T09:19:44.674Z,97349.41
2023-03-06T09:22:11.197Z,97348.22
2023-03-06T09:24:37.732Z,97350.84
2023-03-06T09:27:04.254Z,97345.13
2023-03-06T09:29:30.738Z,97347.25
2023-03-06T09:31:57.241Z,97351.88
2023-03-06T09:34:23.959Z,97352.13
2023-03-06T09:36:56.711Z,97346.28
2023-03-06T09:39:24.622Z,97350.41
2023-03-06T09:41:51.138Z,97355.81
2023-03-06T09:44:19.167Z,97351.63
2023-03-06T09:47:00.686Z,97350.78
2023-03-06T09:49:42.316Z,97362.88
2023-03-06T09:52:28.333Z,97346.28
2023-03-06T09:54:56.040Z,97353.34
2023-03-06T09:57:27.075Z,97352.16
2023-03-06T09:59:55.249Z,97353.00
2023-03-06T10:02:21.787Z,97363.06
2023-03-06T10:04:50.264Z,97347.38
2023-03-06T10:07:16.756Z,97351.72
2023-03-06T10:10:04.134Z,97355.13
2023-03-06T10:12:38.300Z,97353.88
2023-03-06T10:15:04.854Z,97357.75
2023-03-06T10:17:34.410Z,97355.00
2023-03-06T10:20:01.294Z,97360.69
2023-03-06T10:22:33.883Z,97358.38
2023-03-06T10:25:35.662Z,97355.06
2023-03-06T10:28:18.358Z,97355.44
2023-03-06T10:30:50.594Z,97359.78
2023-03-06T10:33:17.038Z,97358.03
2023-03-06T10:35:46.469Z,97356.91
2023-03-06T10:38:19.555Z,97352.59
2023-03-06T10:40:52.105Z,97353.84
2023-03-06T10:43:19.135Z,97356.63
2023-03-06T10:45:49.162Z,97358.22
2023-03-06T10:48:17.871Z,97360.97
2023-03-06T10:50:44.367Z,97358.75
2023-03-06T10:53:19.517Z,97359.91
2023-03-06T10:55:59.047Z,97353.81
2023-03-06T10:58:26.855Z,97361.34
2023-03-06T11:01:08.624Z,97358.13
2023-03-06T11:03:36.339Z,97355.09
2023-03-06T11:06:03.033Z,97352.59
2023-03-06T11:08:29.845Z,97347.78
2023-03-06T11:10:57.485Z,97351.19
2023-03-06T11:13:25.247Z,97343.31
2023-03-06T11:16:02.281Z,97348.88
2023-03-06T11:18:49.059Z,97346.69
2023-03-06T11:21:26.521Z,97344.19
2023-03-06T11:23:53.041Z,97343.56
2023-03-06T11:26:31.105Z,97344.56
2023-03-06T11:29:01.155Z,97341.47
2023-03-06T11:31:28.885Z,97336.00
2023-03-06T11:33:58.924Z,97339.97
2023-03-06T11:36:26.642Z,97329.91
2023-03-06T11:38:53.908Z,97329.75
2023-03-06T11:41:32.044Z,97329.91
2023-03-06T11:44:16.074Z,97333.59
2023-03-06T11:46:48.744Z,97324.00
2023-03-06T11:49:26.680Z,97318.00
2023-03-06T11:51:54.865Z,97309.38
2023-03-06T11:54:21.365Z,97311.41
2023-03-06T11:57:07.011Z,97300.78
2023-03-06T11:59:42.745Z,97302.16
2023-03-06T12:02:18.163Z,97295.84
2023-03-06T12:04:53.383Z,97300.03
2023-03-06T12:07:20.549Z,97297.81
2023-03-06T12:12:52.042Z,97286.47
2023-03-06T12:15:21.102Z,97291.00
2023-03-06T12:17:56.745Z,97287.50
2023-03-06T12:20:25.938Z,97279.81
2023-03-06T12:23:14.605Z,97283.47
2023-03-06T12:25:45.064Z,97282.34
2023-03-06T12:28:14.555Z,97286.72
2023-03-06T12:30:50.009Z,97279.97
2023-03-06T12:33:34.902Z,97277.00
2023-03-06T12:36:04.552Z,97281.75
2023-03-06T12:38:33.858Z,97275.94
2023-03-06T12:41:03.078Z,97272.63
2023-03-06T12:43:34.461Z,97276.59
2023-03-06T12:46:03.111Z,97277.59
2023-03-06T12:48:30.970Z,97268.03
2023-03-06T12:50:57.828Z,97274.84
2023-03-06T12:53:28.886Z,97283.75
2023-03-06T12:55:55.368Z,97270.59
2023-03-06T12:58:30.737Z,97277.16
2023-03-06T13:01:04.046Z,97278.53
2023-03-06T13:03:49.828Z,97270.19
2023-03-06T13:06:39.126Z,97265.00
2023-03-06T13:09:23.262Z,97262.78
2023-03-06T13:11:49.706Z,97260.41
2023-03-06T13:14:26.520Z,97259.97
2023-03-06T13:16:53.076Z,97259.97
2023-03-06T13:19:20.660Z,97258.06
2023-03-06T13:21:56.216Z,97252.25
2023-03-06T13:24:23.477Z,97251.03
2023-03-06T13:26:49.931Z,97251.88
2023-03-06T13:29:35.180Z,97248.94
2023-03-06T13:32:01.676Z,97250.19
2023-03-06T13:34:28.137Z,97242.50
2023-03-06T13:36:54.613Z,97249.50
2023-03-06T13:39:21.092Z,97249.81
2023-03-06T13:41:54.816Z,97247.34
2023-03-06T13:44:24.534Z,97256.81
2023-03-06T13:47:00.986Z,97251.00
2023-03-06T13:49:27.513Z,97255.13
2023-03-06T13:51:54.153Z,97253.06
2023-03-06T13:54:39.492Z,97254.09
2023-03-06T13:57:18.163Z,97242.69
2023-03-06T14:00:10.048Z,97240.94
2023-03-06T14:02:36.751Z,97240.41
2023-03-06T14:05:03.854Z,97243.63
2023-03-06T14:07:31.380Z,97246.09
2023-03-06T14:10:13.012Z,97242.63
2023-03-06T14:12:39.672Z,97247.09
2023-03-06T14:15:12.717Z,97243.41
2023-03-06T14:17:39.325Z,97240.88
2023-03-06T14:20:16.029Z,97240.66
2023-03-06T14:22:42.813Z,97234.72
2023-03-06T14:25:15.378Z,97232.03
2023-03-06T14:27:42.281Z,97234.63
2023-03-06T14:30:11.035Z,97229.13
2023-03-06T14:32:37.907Z,97234.94
2023-03-06T14:35:17.983Z,97230.41
2023-03-06T14:37:44.915Z,97231.63
2023-03-06T14:40:13.854Z,97226.56
2023-03-06T14:42:40.366Z,97225.31
2023-03-06T14:45:17.407Z,97236.69
2023-03-06T14:47:44.526Z,97223.50
2023-03-06T14:50:21.646Z,97231.16
2023-03-06T14:52:48.733Z,97228.22
2023-03-06T14:55:17.401Z,97228.75
2023-03-06T14:57:44.120Z,97228.88
2023-03-06T15:00:17.310Z,97226.56
2023-03-06T15:02:44.228Z,97222.09
2023-03-06T15:05:18.656Z,97219.00
2023-03-06T15:07:45.586Z,97221.34
2023-03-06T15:10:22.247Z,97220.22
2023-03-06T15:12:48.795Z,97224.94
2023-03-06T15:15:15.219Z,97227.50
2023-03-06T15:17:41.700Z,97218.78
2023-03-06T15:20:28.337Z,97214.84
2023-03-06T15:22:54.854Z,97220.00
2023-03-06T15:25:21.387Z,97219.19
2023-03-06T15:27:49.193Z,97220.13
2023-03-06T15:30:29.603Z,97201.78
2023-03-06T15:33:20.178Z,97219.38
2023-03-06T15:36:01.897Z,97216.75
2023-03-06T15:38:32.763Z,97217.91
2023-03-06T15:41:01.077Z,97219.03
2023-03-06T15:43:28.206Z,97218.78
2023-03-06T15:45:56.742Z,97223.03
2023-03-06T15:48:23.287Z,97219.22
2023-03-06T15:50:49.797Z,97227.81
2023-03-06T15:53:16.332Z,97219.03
2023-03-06T15:55:42.848Z,97217.78
2023-03-06T15:58:09.491Z,97220.44
2023-03-06T16:00:38.476Z,97224.88
2023-03-06T16:03:05.068Z,97223.84
2023-03-06T16:05:31.601Z,97232.63
2023-03-06T16:07:58.271Z,97230.97
2023-03-06T16:10:25.933Z,97232.50
2023-03-06T16:13:03.524Z,97237.72
2023-03-06T16:15:30.620Z,97246.88
2023-03-06T16:17:57.338Z,97253.25
2023-03-06T16:20:24.785Z,97248.88
2023-03-06T16:22:53.857Z,97245.84
2023-03-06T16:25:21.013Z,97250.00
2023-03-06T16:27:55.436Z,97247.88
2023-03-06T16:30:22.266Z,97257.25
2023-03-06T16:32:49.585Z,97253.81
2023-03-06T16:35:16.217Z,97259.31
2023-03-06T16:37:42.982Z,97256.84
2023-03-06T16:40:15.558Z,97252.28
2023-03-06T16:42:42.176Z,97265.50
2023-03-06T16:45:08.980Z,97263.00
2023-03-06T16:47:36.358Z,97270.16
2023-03-06T16:50:03.514Z,97268.53
2023-03-06T16:52:30.074Z,97267.56
2023-03-06T16:54:56.727Z,97268.66
2023-03-06T16:57:23.354Z,97270.56
2023-03-06T16:59:50.261Z,97268.53
2023-03-06T17:02:17.041Z,97269.22
2023-03-06T17:04:43.689Z,97267.31
2023-03-06T17:07:10.333Z,97274.72
2023-03-06T17:09:36.877Z,97277.34
2023-03-06T17:12:03.395Z,97275.00
2023-03-06T17:14:30.572Z,97276.91
2023-03-06T17:16:58.757Z,97275.56
2023-03-06T17:19:25.906Z,97281.88
2023-03-06T17:21:52.517Z,97293.56
2023-03-06T17:24:19.100Z,97288.34
2023-03-06T17:26:46.984Z,97298.94
2023-03-06T17:29:13.580Z,97292.63
2023-03-06T17:31:40.068Z,97291.66
2023-03-06T17:34:06.607Z,97299.38
2023-03-06T17:36:33.124Z,97300.16
2023-03-06T17:39:00.514Z,97306.22
2023-03-06T17:41:27.173Z,97304.59
2023-03-06T17:43:58.296Z,97300.56
2023-03-06T17:46:25.170Z,97305.81
2023-03-06T17:48:51.807Z,97307.75
2023-03-06T17:51:18.323Z,97301.97
2023-03-06T17:53:44.872Z,97303.34
2023-03-06T17:56:11.880Z,97309.25
2023-03-06T17:58:38.395Z,97321.34
2023-03-06T18:01:11.574Z,97314.06
2023-03-06T18:03:38.684Z,97305.41
2023-03-06T18:06:05.554Z,97310.50
2023-03-06T18:08:32.309Z,97308.53
2023-03-06T18:10:59.983Z,97312.97
2023-03-06T18:13:26.515Z,97315.16
2023-03-06T18:15:53.674Z,97308.97
2023-03-06T18:18:20.521Z,97302.38
2023-03-06T18:20:47.376Z,97308.97
2023-03-06T18:23:13.997Z,97307.06
2023-03-06T18:25:40.511Z,97308.84
2023-03-06T18:28:07.146Z,97317.22
2023-03-06T18:30:41.563Z,97312.41
2023-03-06T18:33:08.263Z,97315.03
2023-03-06T18:35:34.833Z,97315.97
2023-03-06T18:38:01.382Z,97310.75
2023-03-06T18:40:27.910Z,97314.31
2023-03-06T18:42:55.098Z,97312.66
2023-03-06T18:45:21.655Z,97313.06
2023-03-06T18:47:48.151Z,97307.19
2023-03-06T18:50:17.603Z,97314.06
2023-03-06T18:52:44.320Z,97314.44
2023-03-06T18:55:11.022Z,97309.47
2023-03-06T18:57:37.526Z,97307.19
2023-03-06T19:00:04.829Z,97307.44
2023-03-06T19:02:31.573Z,97306.59
2023-03-06T19:07:44.873Z,97306.06
2023-03-06T19:10:11.548Z,97305.09
2023-03-06T19:12:38.076Z,97306.91
2023-03-06T19:15:04.724Z,97308.69
2023-03-06T19:17:31.946Z,97300.44
2023-03-06T19:19:58.503Z,97300.19
2023-03-06T19:22:25.181Z,97302.78
2023-03-06T19:24:51.696Z,97299.75
2023-03-06T19:27:18.178Z,97298.66
2023-03-06T19:29:44.696Z,97300.28
2023-03-06T19:32:11.303Z,97306.84
2023-03-06T19:34:37.938Z,97303.03
2023-03-06T19:37:04.550Z,97311.41
2023-03-06T19:39:31.057Z,97305.22
2023-03-06T19:41:57.599Z,97302.47
2023-03-06T19:44:24.159Z,97304.00
2023-03-06T19:46:50.753Z,97307.69
2023-03-06T19:49:18.180Z,97298.47
2023-03-06T19:51:44.716Z,97294.50
2023-03-06T19:54:12.318Z,97298.34
2023-03-06T19:56:38.858Z,97304.53
2023-03-06T19:59:05.383Z,97304.00
2023-03-06T20:01:31.959Z,97305.22
2023-03-06T20:03:59.541Z,97303.44
2023-03-06T20:06:27.577Z,97303.03
2023-03-06T20:08:54.228Z,97299.16
2023-03-06T20:11:29.818Z,97304.09
2023-03-06T20:13:56.992Z,97301.47
2023-03-06T20:16:24.072Z,97304.09
2023-03-06T20:18:50.700Z,97301.50
2023-03-06T20:21:17.436Z,97295.69
2023-03-06T20:23:43.960Z,97300.41
2023-03-06T20:26:12.021Z,97297.25
2023-03-06T20:28:39.303Z,97285.56
2023-03-06T20:31:07.590Z,97286.38
2023-03-06T20:33:34.473Z,97283.09
2023-03-06T20:36:01.272Z,97282.41
2023-03-06T20:38:28.035Z,97278.81
2023-03-06T20:40:56.285Z,97278.69
2023-03-06T20:43:23.703Z,97281.16
2023-03-06T20:46:00.103Z,97282.91
2023-03-06T20:48:26.655Z,97282.53
2023-03-06T20:51:00.047Z,97280.72
2023-03-06T20:53:26.755Z,97285.25
2023-03-06T20:55:54.101Z,97284.16
2023-03-06T20:58:22.102Z,97281.81
2023-03-06T21:00:48.814Z,97284.44
2023-03-06T21:03:15.350Z,97284.31
2023-03-06T21:05:41.878Z,97284.03
2023-03-06T21:08:08.412Z,97273.59
2023-03-06T21:10:34.932Z,97271.94
2023-03-06T21:13:01.418Z,97266.03
2023-03-06T21:15:30.028Z,97268.38
2023-03-06T21:17:56.738Z,97263.16
2023-03-06T21:20:23.571Z,97262.75
2023-03-06T21:22:51.265Z,97256.00
2023-03-06T21:25:17.757Z,97257.78
2023-03-06T21:27:44.293Z,97249.94
2023-03-06T21:30:11.062Z,97250.09
2023-03-06T21:32:37.662Z,97241.44
2023-03-06T21:35:04.388Z,97249.13
2023-03-06T21:37:30.895Z,97250.66
2023-03-06T21:40:00.420Z,97245.13
2023-03-06T21:42:26.927Z,97244.59
2023-03-06T21:44:53.444Z,97237.00
2023-03-06T21:47:19.955Z,97237.16
2023-03-06T21:49:47.974Z,97238.94
2023-03-06T21:52:14.548Z,97235.34
2023-03-06T21:54:41.660Z,97235.34
2023-03-06T21:57:08.157Z,97231.53
2023-03-06T21:59:34.670Z,97237.28
2023-03-06T22:02:01.208Z,97236.47
2023-03-06T22:04:27.783Z,97232.47
2023-03-06T22:06:54.300Z,97235.50
2023-03-06T22:09:20.821Z,97231.94
2023-03-06T22:11:47.955Z,97229.72
2023-03-06T22:14:14.920Z,97218.03
2023-03-06T22:16:41.554Z,97209.09
2023-03-06T22:19:08.073Z,97211.69
2023-03-06T22:21:34.579Z,97211.44
2023-03-06T22:24:01.113Z,97218.19
2023-03-06T22:26:28.048Z,97211.56
2023-03-06T22:28:54.642Z,97220.50
2023-03-06T22:31:24.047Z,97211.56
2023-03-06T22:33:54.410Z,97209.25
2023-03-06T22:36:21.046Z,97209.25
2023-03-06T22:38:47.802Z,97208.16
2023-03-06T22:41:15.838Z,97214.19
2023-03-06T22:43:42.421Z,97214.19
2023-03-06T22:46:10.006Z,97206.22
2023-03-06T22:48:36.653Z,97204.97
2023-03-06T22:51:04.265Z,97217.47
2023-03-06T22:53:30.923Z,97213.91
2023-03-06T22:55:58.934Z,97210.19
2023-03-06T22:58:25.413Z,97214.44
2023-03-06T23:00:51.901Z,97220.78
2023-03-06T23:03:18.408Z,97206.06
2023-03-06T23:05:44.941Z,97204.84
2023-03-06T23:08:11.414Z,97197.81
2023-03-06T23:10:38.897Z,97199.22
2023-03-06T23:13:23.767Z,97194.94
2023-03-06T23:16:09.045Z,97198.94
2023-03-06T23:18:54.164Z,97199.31
2023-03-06T23:21:38.958Z,97188.34
2023-03-06T23:24:23.920Z,97192.03
2023-03-06T23:26:50.504Z,97171.84
2023-03-06T23:29:16.990Z,97180.06
2023-03-06T23:31:43.475Z,97176.75
2023-03-06T23:34:11.579Z,97178.72
2023-03-06T23:36:38.072Z,97180.34
2023-03-06T23:39:04.575Z,97179.13
2023-03-06T23:41:31.265Z,97180.75
2023-03-06T23:43:58.310Z,97171.69
2023-03-06T23:46:24.960Z,97176.47
2023-03-06T23:48:52.249Z,97173.31
2023-03-06T23:51:19.565Z,97173.47
2023-03-06T23:53:46.571Z,97173.03
2023-03-06T23:56:13.172Z,97180.97
2023-03-06T23:58:39.917Z,97184.56
